Niles, Indiana
Current Conditions -  °F | °C
As of 2:53 AM on Monday 24 Nov 2014 (Local Time) from KMIE Reporting Station
Light Rain Light Rain  
Wind Chill: 56°   Ceiling: 1100
Heat Index: 56°   Visibility: 3mi
Dew Point: 53°   Wind: 17mph
Humidity: 90%   Direction: 230°SW
Pressure: 29.21"   Gusts: 26mph
Location:  40.3453°N, 85.3353°W
Report Text: KMIE 240753Z AUTO 23015G23KT 3SM -RA BR OVC011 13/12 A2921 RMK AO2 PK WND 22026/0707 RAE04B47 CIG 007V012 SLP887 P0001 T01330117
Loading
Personal Weather Stations






























Interactive Weather Map New forecast layout! Learn more

10-Day Weather Forecast

Advertisements
Track Severe Weather on mobile